Fábio Monteiro

Olheiro - Vasco da Gama
23 Abr 2028
Domingo
Processo

Personalidade

Adaptabilidade (5) Ambição (15) Controvérsia (12) Lealdade (1) Pressão (16) Profissionalismo (14) Espírito Esportivo (11) Temperamento (17)

Perfil

Estilo de Treinamento Democrático
Licença Continental Pro
Determinação 7
Gestão de Pessoas 9
Motivação 10
Disciplina 10
Satisfação no Trabalho
79%
Fadiga
0%
Função Olheiro
Salário 33.8K p/s
Contrato 14.03.2030

Desempenho

Comportamento Bom
Eficácia do Treinamento
34%
Desenvolvimento do Jogador
25%
Prevenção de Lesões
40%
Implementação Tática
25%

Eventos Recentes

Avaliou um jogador agora
Participou de uma reunião de recrutamento agora
Recomendou um alvo de transferência agora
Avaliou um jogador agora
Avaliou um jogador agora
Avaliou um jogador 7d atrás
Avaliou um jogador 7d atrás
Avaliou um jogador 7d atrás

Monitorando agora

213
Jogador Clube Status Habilidade Confiança Observado Última observação Último voto
André Wolverhampton Ativo 160 / 143 40% 2 22.04.2028 -
Welington Southampton Ativo 145 / 140 40% 5 22.04.2028 -
Derry Murkin Derby County Ativo 133 / 140 40% 2 22.04.2028 -
Nico González Newcastle United Ativo 159 / 172 40% 3 21.04.2028 -
Adam Wharton Crystal Palace Ativo 161 / 158 40% 3 21.04.2028 -
Matteo Ruggeri Middlesbrough Ativo 156 / 167 40% 4 21.04.2028 -
Max Bird Birmingham Ativo 148 / 135 40% 5 20.04.2028 -
Jayden Bogle Leeds United Ativo 148 / 139 40% 2 19.04.2028 -
Nordi Mukiele Sunderland Ativo 146 / 136 40% 2 19.04.2028 -
Manuel Ugarte Leicester City Ativo 152 / 145 40% 2 17.04.2028 -
Óscar Mingueza Crystal Palace Ativo 158 / 150 40% 7 16.04.2028 -
Gerard Martín Barcelona Ativo 166 / 151 40% 4 16.04.2028 -
Amadou Onana Aston Villa Ativo 158 / 167 40% 3 15.04.2028 -
Renan Lodi Atlético Mineiro Ativo 143 / 135 40% 3 15.04.2028 -
Shea Charles Southampton Ativo 141 / 150 40% 3 15.04.2028 -
Matheus Bidu Corinthians Ativo 133 / 124 40% 3 13.04.2028 -
Neco Williams Wrexham Ativo 152 / 159 40% 1 13.04.2028 -
Bruno Gomes Internacional Ativo 134 / 126 40% 4 11.04.2028 -
Alex Scott Bournemouth Ativo 150 / 144 40% 4 11.04.2028 -
Moisés Caicedo Chelsea Ativo 170 / 173 40% 5 10.04.2028 -
Maximiliano Araújo West Ham United Ativo 160 / 145 40% 1 10.04.2028 -
Angeliño AS Roma Ativo 147 / 155 40% 3 08.04.2028 -
Vitaly Janelt Derby County Ativo 154 / 147 40% 1 08.04.2028 -
Caio Alexandre Bahia Ativo 135 / 127 40% 2 06.04.2028 -
Agustín Giay Palmeiras Ativo 133 / 131 40% 1 05.04.2028 -
James Trafford Leeds United Ativo 146 / 153 40% 4 02.04.2028 -
Nathan Trott Cardiff City Ativo 136 / 127 40% 4 02.04.2028 -
Joe Lumley Sheffield Wednesday Ativo 116 / 133 40% 2 02.04.2028 -
Danilo Botafogo Ativo 149 / 152 40% 1 02.04.2028 -
Lucas Paquetá Flamengo Ativo 147 / 149 40% 1 31.03.2028 -
Jake O'Brien Everton Ativo 145 / 143 40% 1 31.03.2028 -
Ángelo Preciado Atlético Mineiro Ativo 139 / 141 40% 3 30.03.2028 -
Youssouf Fofana AC Milan Ativo 151 / 152 40% 2 30.03.2028 -
Nathan Bishop AFC Wimbledon Ativo 127 / 130 40% 3 29.03.2028 -
Marcos Antonio Sport Recife Ativo 144 / 147 40% 1 29.03.2028 -
Vladan Kovačević Norwich City Ativo 131 / 113 40% 1 29.03.2028 -
Anthony Patterson Wrexham Ativo 133 / 126 40% 5 27.03.2028 -
Gabriel Brazão Santos Ativo 142 / 148 40% 2 27.03.2028 -
Sam Tickle Modena Ativo 139 / 127 40% 2 27.03.2028 -
Mats Wieffer Brighton Ativo 145 / 156 40% 1 24.03.2028 -
Tosin Adarabioyo West Bromwich Albion Ativo 145 / 156 40% 2 23.03.2028 -
Lukas Jensen Millwall Ativo 120 / 116 40% 2 22.03.2028 -
Boubacar Kamara Aston Villa Ativo 175 / 176 40% 2 22.03.2028 -
Luciano Juba Bahia Ativo 143 / 133 40% 1 22.03.2028 -
Vitinho Botafogo Ativo 133 / 142 40% 2 20.03.2028 -
Exequiel Palacios Lazio Ativo 163 / 150 40% 1 19.03.2028 -
Michael Cooper Sheffield United Ativo 136 / 132 40% 3 18.03.2028 -
Caoimhin Kelleher Brentford Ativo 158 / 153 40% 1 17.03.2028 -
Carl Rushworth Aston Villa Ativo 155 / 163 40% 1 17.03.2028 -
Radek Vítek Middlesbrough Ativo 142 / 139 40% 2 14.03.2028 -
Carlos Miguel Palmeiras Ativo 137 / 130 40% 1 14.03.2028 -
Hugo Souza Corinthians Ativo 148 / 142 40% 1 12.03.2028 -
Nick Pope Newcastle United Ativo 136 / 143 40% 2 11.03.2028 -
Lucas Arcanjo Vitória Ativo 128 / 126 40% 1 11.03.2028 -
Emiliano Martínez Chelsea Ativo 169 / 156 40% 1 09.03.2028 -
Sol Brynn Bradford City Ativo 135 / 129 40% 1 09.03.2028 -
Raul Steffens AVS Ativo 130 / 115 40% 2 08.03.2028 -
Lukáš Horníček Burnley Ativo 160 / 148 40% 1 07.03.2028 -
Josh Keeley Luton Town Ativo 146 / 139 40% 2 06.03.2028 -
Gabriel Batista Botafogo Ativo 134 / 122 40% 2 06.03.2028 -
Aaron Ramsdale Southampton Ativo 150 / 157 40% 1 14.02.2028 -
Maxime Crépeau Orlando City Ativo 130 / 116 40% 1 14.02.2028 -
Matz Sels Nottingham Forest Ativo 144 / 130 40% 1 10.02.2028 -
James Pantemis Portland Timbers Ativo 132 / 127 40% 1 10.02.2028 -
Xavier Biscayzacú Defensor Sporting Ativo 135 / 138 40% 1 30.11.2027 -
Andreas Pereira Palmeiras Ativo 134 / 140 40% 1 30.11.2027 -
Christian Kouamé Atlético Mineiro Ativo 139 / 136 40% 1 30.11.2027 -
Eduardo Felicíssimo Sporting CP Ativo 126 / 136 40% 5 29.11.2027 -
Gonçalo Oliveira Benfica Ativo 119 / 120 40% 5 29.11.2027 -
Josh Nichols Oldham Athletic Ativo 109 / 125 40% 2 29.11.2027 -
Daniel Idoko Ikorodu City Ativo 94 / 103 40% 4 27.11.2027 -
Ignacio Fernández Boston River Ativo 86 / 102 40% 3 27.11.2027 -
Joel Ezra Enyimba Ativo 100 / 96 40% 3 27.11.2027 -
Kauã Moraes Flamengo Ativo 123 / 132 40% 6 26.11.2027 -
Matias Siltanen Malmo FF Ativo 132 / 139 40% 5 26.11.2027 -
Alani Maritimo Ativo 119 / 107 40% 1 26.11.2027 -
Trey Nyoni Rotherham United Ativo 141 / 136 40% 1 24.11.2027 -
Archie Gray Southampton Ativo 141 / 144 40% 3 23.11.2027 -
Souza Tottenham Ativo 124 / 136 40% 1 23.11.2027 -
Victor Hernandez Santa Fe Ativo 122 / 116 40% 4 22.11.2027 -
Honest Ahanor Atalanta Ativo 144 / 133 40% 3 22.11.2027 -
Chris Rigg Sunderland Ativo 131 / 145 40% 1 22.11.2027 -
Colin Guske Orlando City Ativo 91 / 94 40% 2 21.11.2027 -
Pablo Lúcio St. Gallen Ativo 106 / 128 40% 2 20.11.2027 -
Sebastián Ramírez Aguilas Doradas Ativo 101 / 108 40% 3 17.11.2027 -
Olaniyi Saheed Kwara United Ativo 90 / 105 40% 1 17.11.2027 -
Josh King Newcastle United Ativo 151 / 157 40% 1 15.11.2027 -
Agustín De la Cuesta Racing Ativo 117 / 113 40% 2 13.11.2027 -
Daniel Banjaqui Benfica Ativo 110 / 123 40% 5 12.11.2027 -
Adrian Skogmar Malmo FF Ativo 124 / 120 40% 4 12.11.2027 -
Hosea Michael Remo Stars Ativo 87 / 100 40% 2 11.11.2027 -
Jorrel Hato Chelsea Ativo 147 / 152 40% 3 09.11.2027 -
Vinícius Lira São Paulo Ativo 118 / 125 40% 1 01.11.2027 -
Gideon Manaseh Ikorodu City Ativo 87 / 100 40% 1 30.10.2027 -
Bernardo Lima Porto Ativo 107 / 120 40% 6 28.10.2027 -
Salvador Blopá Sporting CP Ativo 118 / 112 40% 2 21.10.2027 -
Ayden Heaven Portsmouth Ativo 155 / 146 40% 2 20.10.2027 -
Nicolas Sport Recife Ativo 105 / 121 40% 2 19.10.2027 -
Nahuel Leivas Montevideo City Torque Ativo 107 / 114 40% 3 19.10.2027 -
Esteban de Lima Tacuarembo Ativo 97 / 105 40% 2 18.10.2027 -
Tiago Freitas Benfica Ativo 116 / 120 40% 3 17.10.2027 -
Miguel Figueiredo Benfica Ativo 120 / 114 40% 2 12.10.2027 -
Caleb Yirenkyi Coventry City Ativo 142 / 146 40% 1 12.10.2027 -
Eliás Montiel Borussia Dortmund Ativo 135 / 136 40% 1 17.09.2027 -
Diego Vargas Universidad de Concepcion Ativo 92 / 98 40% 2 16.09.2027 -
Azizbek To'lqinbekov Bunyodkor Ativo 106 / 98 40% 1 08.09.2027 -
Finn Azaz Southampton Ativo 141 / 128 40% 1 31.05.2027 -
Ismaïla Sarr Crystal Palace Ativo 143 / 157 40% 1 31.05.2027 -
Ivor Pandur Hull City Ativo 125 / 116 40% 2 30.05.2027 -
Jacob Greaves Ipswich Town Ativo 135 / 145 40% 5 29.05.2027 -
Tyler Adams Bournemouth Ativo 151 / 160 40% 2 29.05.2027 -
Oliver Skipp Leicester City Ativo 130 / 140 40% 1 29.05.2027 -
Will Dennis Milton Keynes Dons Ativo 115 / 108 40% 4 28.05.2027 -
Zane Albarus Shrewsbury Town Ativo 97 / 87 40% 3 27.05.2027 -
Jan Bürger Northampton Town Ativo 108 / 121 40% 1 27.05.2027 -
Gianluca Saro Foggia Ativo 103 / 121 40% 1 26.05.2027 -
Mile Svilar AS Roma Ativo 156 / 171 40% 1 25.05.2027 -
Manu Koné AS Roma Ativo 172 / 154 40% 5 24.05.2027 -
Quinten Timber Crystal Palace Ativo 154 / 138 40% 1 24.05.2027 -
Levi Colwill Chelsea Ativo 165 / 173 40% 1 24.05.2027 -
Ollie Scarles West Ham United Ativo 137 / 139 40% 3 23.05.2027 -
Lucas Bergvall Tottenham Ativo 144 / 153 40% 1 23.05.2027 -
Max Johnston Derby County Ativo 121 / 132 40% 1 22.05.2027 -
Xaver Schlager Nottingham Forest Ativo 145 / 142 40% 1 22.05.2027 -
Dara O'Shea Ipswich Town Ativo 146 / 138 40% 3 21.05.2027 -
Brooke Norton-Cuffy Hull City Ativo 135 / 142 40% 2 21.05.2027 -
Ryan Sessegnon Fulham Ativo 139 / 147 40% 1 21.05.2027 -
Florentino Luís Ipswich Town Ativo 151 / 145 40% 4 20.05.2027 -
André-Franck Zambo Anguissa Napoli Ativo 155 / 147 40% 1 20.05.2027 -
Khéphren Thuram Juventus Ativo 159 / 145 40% 1 19.05.2027 -
Ethan Galbraith Swansea City Ativo 143 / 145 40% 1 18.05.2027 -
Callum Brittain Middlesbrough Ativo 139 / 128 40% 1 16.05.2027 -
George Wickens Lincoln City Ativo 117 / 122 40% 2 15.05.2027 -
Luke McNally Bristol City Ativo 139 / 117 40% 3 14.05.2027 -
Elia Boseggia Novara Ativo 102 / 126 40% 2 13.05.2027 -
Adrien Truffert Bournemouth Ativo 155 / 161 40% 3 11.05.2027 -
Zach Hemming Chesterfield Ativo 99 / 120 40% 2 05.05.2027 -
Robin Roefs Sunderland Ativo 147 / 135 40% 2 05.05.2027 -
Leon Goretzka Aston Villa Ativo 152 / 162 40% 3 04.05.2027 -
Yehor Yarmoliuk Brentford Ativo 157 / 153 40% 2 04.05.2027 -
Ousmane Diomande Nottingham Forest Ativo 152 / 167 40% 2 01.05.2027 -
Rocco Ríos Novo Sivasspor Ativo 120 / 122 40% 1 01.05.2027 -
Finn Jeltsch VfB Stuttgart Ativo 145 / 130 40% 1 01.05.2027 -
Juanlu Bournemouth Ativo 140 / 164 40% 2 26.04.2027 -
Maxence Lacroix Chelsea Ativo 154 / 163 40% 1 26.04.2027 -
Pedro Porro Tottenham Ativo 158 / 157 40% 2 25.04.2027 -
Matthew Targett Hull City Ativo 128 / 138 40% 3 23.04.2027 -
Ivan Pakholiuk Kolos Ativo 116 / 107 40% 1 22.04.2027 -
Sergio Barlocco Trento Ativo 114 / 119 40% 1 22.04.2027 -
Deniz Ertaş Konyaspor Ativo 114 / 111 40% 2 20.04.2027 -
Bongani Jali Free State Stars Ativo 89 / 109 40% 3 19.04.2027 -
Charlie Gray Fleetwood Town Ativo 83 / 81 40% 1 19.04.2027 -
Andreas Jungdal Westerlo Ativo 119 / 118 40% 1 19.04.2027 -
Maduka Okoye Udinese Ativo 144 / 131 40% 1 18.04.2027 -
Azor Matusiwa Ipswich Town Ativo 141 / 148 40% 1 15.04.2027 -
Ludovico Del Sorbo Sorrento Ativo 101 / 98 40% 1 13.04.2027 -
Samu Maccabi Netanya Ativo 128 / 104 40% 1 13.04.2027 -
Oufa Shobeir MC Alger Ativo 129 / 120 40% 1 13.04.2027 -
Bosun Lawal Stoke City Ativo 119 / 115 40% 1 13.04.2027 -
Kenny Tete Fulham Ativo 143 / 145 40% 2 11.04.2027 -
Igor Burnley Ativo 139 / 144 40% 1 11.04.2027 -
Adam Randell Bristol City Ativo 125 / 130 40% 1 09.04.2027 -
Aidan Morris Middlesbrough Ativo 132 / 140 40% 1 09.04.2027 -
Christopher Opéri Basaksehir Ativo 139 / 138 40% 1 07.04.2027 -
Enrico Delprato Parma Ativo 141 / 150 40% 1 07.04.2027 -
Tomáš Souček West Ham United Ativo 133 / 144 40% 2 06.04.2027 -
Kazunari Kita Real Sociedad Ativo 103 / 100 40% 2 01.04.2027 -
Martim Cunha Porto Ativo 103 / 119 40% 2 30.03.2027 -
Leandro Martins Benfica Ativo 98 / 88 40% 1 30.03.2027 -
Lewis Ferguson Bologna Ativo 135 / 130 40% 1 29.03.2027 -
Milan van Ewijk Coventry City Ativo 134 / 128 40% 1 29.03.2027 -
Myles Roberts Cambridge United Ativo 98 / 94 40% 1 28.03.2027 -
Alfie Doughty Millwall Ativo 125 / 124 40% 1 28.03.2027 -
Mads Hermansen West Ham United Ativo 134 / 136 40% 1 24.03.2027 -
Gonçalo Tabuaço Maritimo Ativo 107 / 95 40% 1 24.03.2027 -
Fran Vieites Walsall Ativo 121 / 114 40% 1 23.03.2027 -
Bright Arrey-Mbi Braga Ativo 131 / 130 40% 4 21.03.2027 -
Enzo Barrenechea Benfica Ativo 157 / 157 40% 2 21.03.2027 -
Víctor Gómez Braga Ativo 150 / 143 40% 1 20.03.2027 -
Sidney Lima Santa Clara Ativo 125 / 125 40% 1 20.03.2027 -
João Gonçalves Oliveirense Ativo 117 / 125 40% 1 18.03.2027 -
Moncef Zekri Sporting CP Ativo 93 / 110 40% 1 11.03.2027 -
James Dornelly Peterborough United Ativo 96 / 108 40% 2 07.03.2027 -
Toni Tamarit Alverca Ativo 121 / 108 40% 1 22.02.2027 -
Axel Frugone Athletic Bilbao Ativo 105 / 116 40% 1 22.02.2027 -
Jenson Jones Walsall Ativo 87 / 102 40% 1 16.02.2027 -
Joaquin Seys Club Brugge Ativo 126 / 117 40% 1 16.02.2027 -
Riley Owen Stevenage Ativo 99 / 107 40% 1 13.02.2027 -
Ivan Giraldo Valencia Ativo 116 / 121 40% 1 13.02.2027 -
Matvey Kislyak CSKA Moscow Ativo 144 / 145 40% 1 03.02.2027 -
Cheveyo Tsawa Club Brugge Ativo 124 / 138 40% 1 03.02.2027 -
Thijmen Blokzijl KV Kortrijk Ativo 128 / 116 40% 1 02.02.2027 -
Marinho Vitória Ativo 120 / 121 72% 1 14.12.2026 Aprovar
Gustaf Lagerbielke Braga Ativo 140 / 120 40% 1 28.11.2026 -
Francisco Moura Porto Ativo 148 / 132 40% 1 28.11.2026 -
Sergi Altimira Sporting CP Ativo 139 / 141 40% 1 28.11.2026 -
Samuel Dahl Benfica Ativo 128 / 132 40% 1 25.11.2026 -
Alberto Costa Porto Ativo 134 / 129 40% 2 22.11.2026 -
Juan Ignacio Nardoni Grêmio Ativo 126 / 124 40% 2 17.11.2026 -
Víctor Guzmán Monterrey Ativo 126 / 128 40% 1 17.11.2026 -
Dinis Pinto Moreirense Ativo 122 / 125 40% 1 17.11.2026 -
Alan Varela Porto Ativo 135 / 157 40% 1 16.11.2026 -
Sikou Niakaté Braga Ativo 143 / 142 40% 1 16.11.2026 -
Mathias De Amorim Famalicao Ativo 120 / 139 40% 1 13.11.2026 -
Nehuén Pérez Porto Ativo 140 / 131 40% 2 09.11.2026 -
Leandro Barreiro Benfica Ativo 142 / 143 40% 1 02.11.2026 -
Alexandro Bernabei Internacional Ativo 131 / 128 40% 1 02.11.2026 -
Fidel Ambríz Monterrey Ativo 119 / 124 40% 1 23.10.2026 -
Jesús Orozco Chiquete Cruz Azul Ativo 136 / 120 40% 1 23.10.2026 -
Conrad Wallem Djurgarden Ativo 121 / 110 40% 1 20.10.2026 -
Santiago Ramos Mingo Bahia Ativo 129 / 128 40% 1 20.10.2026 -
Martinelli Fluminense Ativo 146 / 144 40% 1 20.10.2026 -
Zeno Debast Sporting CP Ativo 128 / 140 40% 1 05.10.2026 -